Sumner, Michigan
Current Conditions -  °F | °C
As of 8:34 AM on Wednesday 22 Oct 2014 (Local Time) from KAMN Reporting Station
Overcast Overcast  
Wind Chill: 38°   Ceiling: 1700
Heat Index: 41°   Visibility: 10mi
Dew Point: 37°   Wind: 5mph
Humidity: 85%   Direction: 330°NNW
Pressure: 30.36"   Gusts: NA
Location:  43.31°N, 84.82°W
Report Text: KAMN 221234Z AUTO 33004KT 10SM OVC017 05/03 A3036 RMK AO2 T00500027
Loading
Personal Weather Stations






























Interactive Weather Map New forecast layout! Learn more

10-Day Weather Forecast

Advertisements
Track Severe Weather on mobile